This is the latest recevied weather packets stored in our database for station/object DL4NBA-1. If no packets are shown the sender has not sent any weather packets the latest 1 day(s).
| Time | Temp. | Humidity | Pressure | Rain* | Wind** | Luminosity | Snow |
|---|---|---|---|---|---|---|---|
| 1778048185 | 13.33° C | - | - | 0 mm | 0.89 m/s, 177° | - | - |
| 1778047584 | 13.33° C | - | - | 0 mm | 0.89 m/s, 162° | - | - |
| 1778046688 | 12.78° C | - | - | 0 mm | 1.34 m/s, 162° | - | - |
| 1778046087 | 12.22° C | - | - | 0 mm | 1.79 m/s, 190° | - | - |
| 1778045789 | 12.78° C | - | - | 0 mm | 1.79 m/s, 181° | - | - |
| 1778044892 | 13.33° C | - | - | 0 mm | 0 m/s | - | - |
| 1778043692 | 12.22° C | - | - | 0 mm | 0 m/s | - | - |
| 1778043393 | 11.67° C | - | - | 0 mm | 0 m/s | - | - |
| 1778043089 | 11.11° C | - | - | 0 mm | 0 m/s | - | - |
| 1778042193 | 11.11° C | - | - | 0 mm | 0 m/s | - | - |
| 1778041894 | 12.22° C | - | - | 0 mm | 0 m/s | - | - |
| 1778041293 | 12.22° C | - | - | 0 mm | 0 m/s | - | - |
| 1778040397 | 10° C | - | - | 0 mm | 0.45 m/s, 217° | - | - |
| 1778039797 | 8.89° C | - | - | 0 mm | 0 m/s | - | - |
| 1778038899 | 8.89° C | - | - | 0 mm | 0 m/s | - | - |
| 1778038298 | 8.89° C | - | - | 0 mm | 1.34 m/s, 210° | - | - |
| 1778037698 | 8.89° C | - | - | 0 mm | 0.45 m/s, 211° | - | - |
| 1778036799 | 8.33° C | - | - | 0 mm | 1.34 m/s, 236° | - | - |
| 1778035601 | 9.44° C | - | - | 0 mm | 0 m/s | - | - |
| 1778035004 | 8.89° C | - | - | 0 mm | 1.34 m/s, 177° | - | - |
| 1778034407 | 9.44° C | - | - | 0 mm | 2.24 m/s, 193° | - | - |
| 1778034104 | 9.44° C | - | - | 0 mm | 1.79 m/s, 167° | - | - |
| 1778033806 | 9.44° C | - | - | 0 mm | 1.34 m/s, 163° | - | - |
| 1778033209 | 9.44° C | - | - | 0 mm | 1.34 m/s, 187° | - | - |
| 1778032012 | 9.44° C | - | - | 0 mm | 0.89 m/s, 183° | - | - |
* Rain latest hour (hover to see other rain measurements)
** Current wind speed in m/s (hover to see current wind gust speed)